Terminal Aerodrome Forecast
Issued by NWS

Home | Current Version | Previous Version | Text Only | Print | Product List | Glossary On
Versions: 1 2 3 4 5 6 7 8 9 10 11 12 13 14
715
FTPA31 PHFO 211738
TAFHTO
TAF
PHTO 211738Z 2118/2218 32005KT P6SM VCSH SCT025 BKN040
     FM220100 01010G18KT 5SM -SHRA SCT025 BKN035
     FM220600 32005KT P6SM VCSH SCT025 BKN040=

USA.gov is the U.S. government's official web portal to all federal, state and local government web resources and services.